TimeCDT,TemperatureF,Dew PointF,Humidity,Sea Level PressureIn,VisibilityMPH,Wind Direction,Wind SpeedMPH,Gust SpeedMPH,PrecipitationIn,Events,Conditions,WindDirDegrees,DateUTC
12:55 AM,42.1,39.0,89,30.09,10.0,West,6.9,-,N/A,,Overcast,270,2011-10-18 05:55:00
2:55 AM,44.1,39.0,82,30.10,10.0,West,9.2,-,N/A,,Overcast,260,2011-10-18 07:55:00
3:55 AM,42.1,39.0,89,30.08,10.0,West,10.4,-,N/A,,Overcast,270,2011-10-18 08:55:00
4:55 AM,39.9,37.0,89,30.07,10.0,WNW,9.2,-,N/A,,Clear,300,2011-10-18 09:55:00
5:55 AM,39.2,35.6,87,30.08,10.0,WNW,9.2,-,N/A,,Clear,300,2011-10-18 10:55:00
6:55 AM,39.0,35.1,86,30.10,10.0,NW,9.2,-,N/A,,Clear,310,2011-10-18 11:55:00
7:55 AM,37.9,33.1,83,30.11,10.0,NW,9.2,-,N/A,,Clear,310,2011-10-18 12:55:00
8:55 AM,39.9,34.0,79,30.14,10.0,NNW,11.5,-,N/A,,Clear,330,2011-10-18 13:55:00
9:55 AM,44.1,35.1,71,30.15,10.0,NNW,15.0,-,N/A,,Clear,340,2011-10-18 14:55:00
10:55 AM,48.0,34.0,58,30.16,10.0,North,18.4,28.8,0.01,,Clear,350,2011-10-18 15:55:00
11:55 AM,50.0,30.0,46,30.15,10.0,North,19.6,33.4,N/A,,Clear,350,2011-10-18 16:55:00
12:55 PM,52.0,25.0,35,30.15,10.0,North,23.0,35.7,N/A,,Clear,350,2011-10-18 17:55:00
1:55 PM,54.0,26.1,34,30.12,10.0,North,19.6,31.1,N/A,,Clear,360,2011-10-18 18:55:00
2:55 PM,54.0,26.1,34,30.11,10.0,North,24.2,31.1,N/A,,Clear,360,2011-10-18 19:55:00
3:55 PM,55.9,24.1,29,30.10,10.0,NNW,23.0,29.9,N/A,,Clear,340,2011-10-18 20:55:00
4:55 PM,55.9,24.1,29,30.10,10.0,NNW,19.6,26.5,N/A,,Clear,340,2011-10-18 21:55:00
5:55 PM,54.0,24.1,31,30.11,10.0,North,17.3,27.6,N/A,,Clear,350,2011-10-18 22:55:00
6:55 PM,51.1,24.1,35,30.12,10.0,North,12.7,19.6,N/A,,Clear,350,2011-10-18 23:55:00
7:55 PM,46.9,25.0,42,30.14,10.0,NNW,6.9,-,N/A,,Clear,340,2011-10-19 00:55:00
8:55 PM,44.1,27.0,51,30.14,10.0,NNW,6.9,-,N/A,,Clear,330,2011-10-19 01:55:00
9:55 PM,43.0,27.0,53,30.13,10.0,NW,5.8,-,N/A,,Clear,310,2011-10-19 02:55:00
10:55 PM,39.0,27.0,62,30.13,10.0,WNW,6.9,-,N/A,,Clear,300,2011-10-19 03:55:00
11:55 PM,37.9,27.0,65,30.12,10.0,WNW,6.9,-,N/A,,Partly Cloudy,300,2011-10-19 04:55:00